Time;durP1;ratioP1;P1;durP2;ratioP2;P2;SDS_P1;SDS_P2;PMS_P1;PMS_P2;Temp;Humidity;BMP_temperature;BMP_pressure;BME280_temperature;BME280_humidity;BME280_pressure;Samples;Min_cycle;Max_cycle;Signal;HPM_P1;HPM_P2
2022/09/16 00:00:59;;;;;;;8.73;4.97;;;;;;;18.37;95.93;99048.44;4451206;32;33909;-80
2022/09/16 00:03:29;;;;;;;8.32;5.07;;;;;;;18.95;90.80;99038.00;4446839;32;34685;-82
2022/09/16 00:05:56;;;;;;;9.43;5.07;;;;;;;18.79;91.46;99038.81;4436607;32;32872;-81
2022/09/16 00:08:24;;;;;;;8.25;4.85;;;;;;;19.23;88.21;99037.91;4443168;32;33566;-80
2022/09/16 00:10:52;;;;;;;5.87;4.20;;;;;;;18.17;94.30;99040.53;4450992;32;33565;-80
2022/09/16 00:13:19;;;;;;;9.70;4.47;;;;;;;18.08;94.99;99042.28;4460359;32;33972;-80
2022/09/16 05:23:22;;;;;;;16.65;8.55;;;;;;;17.18;82.75;99175.34;4484221;26;34986;-88
2022/09/16 05:25:49;;;;;;;14.43;9.20;;;;;;;16.84;83.73;99175.03;4458738;32;31823;-89
2022/09/16 05:28:17;;;;;;;15.65;8.95;;;;;;;16.93;83.50;99185.59;4451671;32;34119;-87
2022/09/16 05:30:45;;;;;;;16.12;9.07;;;;;;;16.71;84.74;99187.97;4478257;32;34467;-86
2022/09/16 05:33:14;;;;;;;18.25;9.52;;;;;;;16.47;87.49;99193.78;4475935;32;34339;-88
2022/09/16 05:35:42;;;;;;;18.37;9.35;;;;;;;16.77;85.65;99186.28;4479164;32;32268;-87
2022/09/16 05:38:10;;;;;;;16.08;9.90;;;;;;;16.64;86.15;99194.00;4463966;32;33315;-88
2022/09/16 05:40:38;;;;;;;14.00;9.55;;;;;;;16.64;87.44;99183.53;4466019;32;33622;-85
2022/09/16 05:43:05;;;;;;;14.40;8.93;;;;;;;16.50;87.33;99196.47;4473581;32;33561;-85
2022/09/16 05:45:33;;;;;;;13.40;9.02;;;;;;;16.05;89.24;99199.38;4467645;32;34211;-85
2022/09/16 05:48:00;;;;;;;16.58;9.43;;;;;;;15.97;89.40;99201.03;4477151;32;33523;-85
2022/09/16 05:50:28;;;;;;;16.27;10.13;;;;;;;16.53;86.65;99185.16;4480443;32;32960;-85
2022/09/16 05:52:55;;;;;;;15.15;9.10;;;;;;;16.86;86.04;99191.63;4458074;32;33518;-86
2022/09/16 05:55:25;;;;;;;15.60;8.77;;;;;;;17.59;81.40;99180.00;4450221;32;34758;-85
2022/09/16 05:57:52;;;;;;;16.48;9.45;;;;;;;18.17;77.41;99172.47;4483763;32;34145;-86
2022/09/16 06:00:20;;;;;;;14.18;8.60;;;;;;;18.74;74.46;99179.66;4450816;32;33376;-85
2022/09/16 06:02:47;;;;;;;14.25;9.30;;;;;;;18.74;72.90;99184.91;4450338;32;33867;-85
2022/09/16 06:05:15;;;;;;;14.20;9.40;;;;;;;17.44;79.16;99194.75;4461050;32;33514;-85
2022/09/16 06:07:43;;;;;;;16.75;9.73;;;;;;;16.44;84.51;99187.69;4470451;32;33881;-85
2022/09/16 06:10:10;;;;;;;15.18;9.25;;;;;;;17.08;81.72;99195.31;4442308;32;32694;-86
2022/09/16 06:12:38;;;;;;;14.63;9.70;;;;;;;16.96;83.56;99190.88;4455745;32;33415;-87
2022/09/16 06:15:06;;;;;;;16.92;9.63;;;;;;;16.86;83.05;99192.50;4463221;32;33508;-87
2022/09/16 06:17:33;;;;;;;15.82;9.38;;;;;;;17.11;83.21;99192.72;4466052;32;34836;-85
2022/09/16 06:20:01;;;;;;;15.07;9.48;;;;;;;17.12;82.12;99183.16;4468746;32;34271;-87
2022/09/16 06:22:29;;;;;;;16.27;9.63;;;;;;;17.32;80.93;99194.63;4454644;32;33164;-87
2022/09/16 06:24:57;;;;;;;15.35;9.85;;;;;;;17.29;81.58;99205.09;4453794;32;34007;-85
2022/09/16 06:27:24;;;;;;;14.80;8.82;;;;;;;17.17;81.74;99199.75;4468870;32;34777;-85
2022/09/16 06:29:52;;;;;;;15.27;9.13;;;;;;;17.22;80.70;99190.19;4467974;32;33635;-87
2022/09/16 06:32:20;;;;;;;15.77;9.23;;;;;;;17.81;77.58;99187.13;4444798;32;34340;-85
2022/09/16 06:34:49;;;;;;;12.90;8.15;;;;;;;16.98;82.79;99194.38;4472409;32;34286;-84
2022/09/16 06:37:16;;;;;;;14.52;9.25;;;;;;;16.64;81.76;99183.53;4463746;32;33781;-85
2022/09/16 06:39:44;;;;;;;13.85;9.02;;;;;;;16.03;86.34;99182.81;4449320;32;33667;-85
2022/09/16 06:42:11;;;;;;;14.27;9.23;;;;;;;16.09;85.97;99189.00;4461673;32;33232;-87
2022/09/16 06:44:39;;;;;;;14.63;9.10;;;;;;;16.09;86.96;99188.16;4447827;32;33784;-86
2022/09/16 06:47:07;;;;;;;14.15;9.10;;;;;;;17.13;82.94;99183.13;4447817;32;35562;-86
2022/09/16 06:49:35;;;;;;;14.50;9.35;;;;;;;16.74;84.29;99188.84;4439766;32;31917;-87
2022/09/16 06:52:02;;;;;;;16.20;9.95;;;;;;;16.40;86.48;99188.47;4464851;32;33759;-86
2022/09/16 06:54:30;;;;;;;14.48;8.75;;;;;;;16.37;86.52;99188.47;4448762;32;34461;-86
2022/09/16 06:56:58;;;;;;;13.57;8.48;;;;;;;16.50;87.25;99186.00;4476230;32;34579;-87
2022/09/16 06:59:25;;;;;;;16.23;11.55;;;;;;;17.72;80.76;99192.31;4461471;32;33448;-85
2022/09/16 07:01:53;;;;;;;17.42;9.45;;;;;;;16.59;84.92;99190.47;4448982;32;34048;-85
2022/09/16 07:04:21;;;;;;;16.60;11.02;;;;;;;17.70;79.42;99196.66;4461874;32;34613;-85
2022/09/16 07:06:49;;;;;;;13.40;9.23;;;;;;;17.51;80.93;99203.50;4450192;32;33801;-87
2022/09/16 07:09:36;;;;;;;14.80;8.45;;;;;;;16.86;83.77;99204.69;4479614;32;34117;-87
2022/09/16 07:12:04;;;;;;;14.63;9.20;;;;;;;18.33;77.95;99203.97;4451716;32;33810;-86
2022/09/16 07:14:32;;;;;;;12.85;8.18;;;;;;;17.62;80.04;99203.59;4452240;32;32655;-85
2022/09/16 07:17:00;;;;;;;11.80;7.93;;;;;;;17.49;79.81;99219.19;4455244;32;34290;-86
2022/09/16 07:19:28;;;;;;;13.02;7.85;;;;;;;18.18;78.04;99221.41;4449102;32;33619;-87
2022/09/16 07:21:56;;;;;;;14.95;8.18;;;;;;;18.85;74.71;99219.91;4474831;32;33565;-85
2022/09/16 07:24:23;;;;;;;12.18;7.90;;;;;;;18.77;74.83;99217.22;4429967;32;32312;-86
2022/09/16 07:26:51;;;;;;;22.95;13.50;;;;;;;18.91;72.84;99214.69;4450492;32;33799;-86
2022/09/16 07:29:19;;;;;;;18.87;10.65;;;;;;;19.33;70.77;99223.44;4458226;32;33649;-85
2022/09/16 07:31:47;;;;;;;12.05;8.05;;;;;;;18.94;72.48;99225.19;4439866;32;32762;-85
2022/09/16 07:34:15;;;;;;;13.40;7.32;;;;;;;19.19;72.17;99222.59;4444330;32;34343;-85
2022/09/16 07:36:45;;;;;;;10.80;7.40;;;;;;;17.58;77.84;99228.03;4449404;32;34761;-85
2022/09/16 07:39:14;;;;;;;11.50;6.82;;;;;;;18.14;76.42;99230.13;4452286;32;32936;-85
2022/09/16 07:41:43;;;;;;;13.82;7.55;;;;;;;17.67;77.52;99222.81;4449952;32;34510;-86
2022/09/16 07:44:13;;;;;;;12.05;6.47;;;;;;;19.22;72.52;99230.47;4443405;32;32557;-85
2022/09/16 07:46:41;;;;;;;11.63;5.65;;;;;;;19.28;70.48;99240.97;4440216;32;32431;-85
2022/09/16 07:49:11;;;;;;;10.93;5.75;;;;;;;18.74;71.30;99247.84;4459440;32;33300;-85
2022/09/16 07:51:38;;;;;;;14.18;5.90;;;;;;;19.35;68.05;99236.59;4440889;32;33588;-85
2022/09/16 07:54:09;;;;;;;8.75;5.47;;;;;;;19.16;69.23;99240.94;4445877;32;33738;-86
2022/09/16 07:56:38;;;;;;;13.82;7.10;;;;;;;17.17;77.79;99246.84;4436724;32;32414;-84
2022/09/16 07:59:07;;;;;;;9.95;6.00;;;;;;;18.01;75.98;99238.81;4466818;32;34111;-87
2022/09/16 08:01:34;;;;;;;9.02;6.00;;;;;;;18.73;72.08;99240.84;4448523;32;34377;-86
2022/09/16 08:04:11;;;;;;;9.88;5.93;;;;;;;18.56;72.07;99244.31;4428971;32;32814;-84
2022/09/16 08:06:38;;;;;;;9.30;5.72;;;;;;;18.79;71.79;99253.97;4445400;32;33253;-87
2022/09/16 08:09:06;;;;;;;9.00;5.62;;;;;;;18.45;73.13;99251.25;4451241;32;33738;-86
2022/09/16 08:11:54;;;;;;;11.75;6.15;;;;;;;18.80;73.29;99247.91;4450274;32;32260;-87
2022/09/16 08:14:22;;;;;;;8.63;5.82;;;;;;;18.07;73.52;99259.78;4432628;32;32466;-87
2022/09/16 08:16:50;;;;;;;11.07;5.50;;;;;;;18.84;71.87;99249.66;4448800;32;34124;-85
2022/09/16 08:19:19;;;;;;;8.75;5.70;;;;;;;18.97;69.90;99246.19;4445627;32;32136;-87
2022/09/16 08:21:47;;;;;;;9.73;5.70;;;;;;;19.09;70.58;99249.72;4460330;32;33524;-87
2022/09/16 08:24:15;;;;;;;10.13;5.70;;;;;;;19.16;69.81;99251.44;4438715;32;32462;-86
2022/09/16 08:26:43;;;;;;;8.60;5.72;;;;;;;19.04;70.68;99245.34;4446208;32;34299;-86
2022/09/16 08:29:10;;;;;;;15.23;5.35;;;;;;;19.18;70.80;99239.19;4466975;32;33946;-86
2022/09/16 08:31:38;;;;;;;8.43;4.75;;;;;;;19.22;68.04;99235.72;4448269;32;33483;-86
2022/09/16 08:34:06;;;;;;;7.62;4.62;;;;;;;19.48;67.32;99243.59;4462223;32;34555;-86
2022/09/16 08:36:34;;;;;;;7.32;4.47;;;;;;;19.26;67.40;99242.72;4450890;32;33691;-86
2022/09/16 08:39:01;;;;;;;8.40;4.65;;;;;;;19.31;67.74;99243.59;4448085;32;33631;-86
2022/09/16 08:41:51;;;;;;;9.13;4.22;;;;;;;19.49;65.63;99241.84;4433742;32;33852;-87
2022/09/16 08:44:21;;;;;;;5.68;3.60;;;;;;;18.88;66.27;99245.28;4442326;32;34357;-88
2022/09/16 08:46:54;;;;;;;8.25;4.12;;;;;;;18.61;66.27;99254.81;4459941;32;33165;-85
2022/09/16 08:49:40;;;;;;;7.65;4.37;;;;;;;18.26;69.63;99245.91;4441696;32;33612;-87
2022/09/16 08:52:28;;;;;;;19.77;4.00;;;;;;;18.52;68.44;99241.66;4458517;32;33096;-86
2022/09/16 08:54:59;;;;;;;7.18;3.50;;;;;;;18.91;67.64;99240.03;4451339;32;34604;-86
2022/09/16 08:57:31;;;;;;;9.15;3.75;;;;;;;18.84;66.28;99244.41;4453049;32;34189;-87
2022/09/16 09:00:06;;;;;;;6.55;4.00;;;;;;;19.08;66.41;99256.69;4442786;32;33500;-87
2022/09/16 09:02:55;;;;;;;10.85;4.37;;;;;;;19.02;65.52;99260.19;4447133;32;33560;-84
2022/09/16 09:05:33;;;;;;;11.43;4.90;;;;;;;18.50;67.25;99265.25;4448921;32;33459;-87
2022/09/16 09:08:31;;;;;;;7.35;5.15;;;;;;;18.77;68.62;99260.97;4440706;32;33907;-85
2022/09/16 09:11:14;;;;;;;7.53;4.60;;;;;;;18.96;68.05;99259.31;4466591;32;33243;-84
2022/09/16 09:14:09;;;;;;;8.18;4.55;;;;;;;18.57;70.05;99261.78;4461299;32;34208;-86
2022/09/16 09:16:42;;;;;;;8.43;4.85;;;;;;;18.20;72.48;99259.00;4432997;32;33592;-86
2022/09/16 09:19:39;;;;;;;8.88;4.40;;;;;;;18.95;67.35;99242.69;4444175;32;32905;-87
2022/09/16 09:22:26;;;;;;;9.43;5.35;;;;;;;19.07;66.82;99246.22;4456621;32;31983;-87
2022/09/16 09:25:19;;;;;;;9.60;4.57;;;;;;;17.67;73.35;99244.66;4463215;32;33391;-86
2022/09/16 09:28:20;;;;;;;9.02;4.80;;;;;;;17.79;71.70;99238.63;4444300;32;32495;-86
2022/09/16 09:30:57;;;;;;;6.82;3.87;;;;;;;19.03;66.98;99233.06;4445980;32;32538;-85
2022/09/16 09:33:36;;;;;;;8.80;4.25;;;;;;;19.25;65.53;99239.22;4457790;32;33246;-84
2022/09/16 09:36:35;;;;;;;10.13;4.68;;;;;;;19.28;65.82;99240.97;4461937;32;33449;-86
2022/09/16 09:39:15;;;;;;;9.32;4.32;;;;;;;19.58;64.69;99244.47;4465631;32;33977;-86
2022/09/16 09:41:47;;;;;;;5.53;3.50;;;;;;;19.59;63.75;99246.22;4463242;32;33683;-86
2022/09/16 09:44:43;;;;;;;6.68;3.75;;;;;;;19.16;63.01;99246.19;4442112;32;33375;-85
2022/09/16 09:47:11;;;;;;;;;;;;;;;19.09;63.53;99254.97;4446426;32;33396;-86
2022/09/16 09:49:45;;;;;;;7.25;3.75;;;;;;;19.03;64.69;99251.44;4439075;32;34137;-85
2022/09/16 09:52:17;;;;;;;5.78;3.00;;;;;;;18.20;67.85;99245.87;4432381;32;34135;-85
2022/09/16 09:54:50;;;;;;;6.43;3.20;;;;;;;18.31;65.31;99234.56;4440031;32;33710;-84
2022/09/16 09:57:39;;;;;;;7.87;3.22;;;;;;;17.98;66.82;99233.53;4432276;32;33296;-85
2022/09/16 10:00:17;;;;;;;6.05;3.05;;;;;;;18.65;65.02;99231.19;4434623;32;32160;-87
2022/09/16 10:02:45;;;;;;;7.07;3.30;;;;;;;17.87;67.78;99221.25;4430811;32;33122;-84
2022/09/16 10:05:25;;;;;;;6.40;3.05;;;;;;;18.03;66.77;99221.34;4441168;32;32643;-84
2022/09/16 10:07:58;;;;;;;7.80;3.47;;;;;;;19.24;63.21;99219.09;4447613;32;33841;-86
2022/09/16 10:10:27;;;;;;;6.37;3.35;;;;;;;17.82;65.32;99217.69;4441053;32;34362;-85
2022/09/16 10:13:09;;;;;;;7.32;2.97;;;;;;;18.93;63.31;99228.69;4447573;32;33303;-84
2022/09/16 10:15:36;;;;;;;6.87;3.17;;;;;;;18.10;65.44;99231.00;4446615;32;32124;-87
2022/09/16 10:18:12;;;;;;;7.03;3.35;;;;;;;17.83;67.02;99229.94;4438610;32;33638;-87
2022/09/16 10:20:42;;;;;;;5.75;3.22;;;;;;;17.77;67.23;99229.91;4441971;32;34554;-86
2022/09/16 10:23:18;;;;;;;6.03;3.00;;;;;;;18.52;65.93;99232.03;4444747;32;34192;-87
2022/09/16 10:25:46;;;;;;;8.80;3.33;;;;;;;18.42;65.29;99231.13;4443726;32;33861;-86
2022/09/16 10:28:22;;;;;;;7.62;3.25;;;;;;;18.86;65.38;99222.53;4460676;32;33512;-88
2022/09/16 10:30:52;;;;;;;6.97;2.70;;;;;;;18.21;64.20;99226.66;4445845;32;34639;-85
2022/09/16 10:33:23;;;;;;;6.40;2.53;;;;;;;18.03;64.55;99226.56;4441827;32;32962;-85
2022/09/16 10:35:57;;;;;;;7.03;2.90;;;;;;;18.04;64.02;99226.59;4463909;32;32841;-85
2022/09/16 10:38:49;;;;;;;6.13;2.80;;;;;;;18.50;64.11;99217.16;4434720;32;33192;-88
2022/09/16 10:41:46;;;;;;;6.65;2.90;;;;;;;17.95;63.85;99223.03;4443541;32;33623;-87
2022/09/16 10:44:26;;;;;;;5.72;2.67;;;;;;;18.60;64.88;99225.09;4446034;32;34883;-86
2022/09/16 10:46:56;;;;;;;7.00;2.67;;;;;;;18.01;64.22;99229.19;4464965;32;33593;-87
2022/09/16 10:49:33;;;;;;;7.20;3.00;;;;;;;17.80;65.17;99224.66;4448041;32;33180;-86
2022/09/16 10:52:12;;;;;;;5.62;2.97;;;;;;;17.92;64.23;99223.00;4449054;32;34036;-86
2022/09/16 10:54:40;;;;;;;8.82;2.80;;;;;;;17.84;66.32;99236.94;4437732;32;33263;-86
2022/09/16 10:57:27;;;;;;;6.30;2.80;;;;;;;18.10;63.88;99236.22;4455799;32;33653;-85
2022/09/16 11:00:10;;;;;;;7.05;2.60;;;;;;;17.99;65.73;99243.16;4463030;32;34320;-85
2022/09/16 11:03:06;;;;;;;9.68;3.28;;;;;;;17.96;66.71;99240.50;4442809;32;33261;-87
2022/09/16 11:06:16;;;;;;;8.27;2.65;;;;;;;18.12;65.36;99241.47;4447234;32;33653;-86
2022/09/16 11:09:16;;;;;;;5.97;2.67;;;;;;;18.38;65.02;99233.72;4434001;32;31582;-85
2022/09/16 11:12:05;;;;;;;6.93;2.45;;;;;;;18.16;64.54;99244.13;4421913;32;33749;-85
2022/09/16 11:14:55;;;;;;;6.12;2.60;;;;;;;18.42;62.09;99236.34;4442564;32;32707;-86
2022/09/16 11:17:35;;;;;;;4.70;2.30;;;;;;;18.57;62.68;99230.31;4438337;32;34048;-86
2022/09/16 11:20:38;;;;;;;5.32;2.47;;;;;;;19.12;60.61;99233.94;4442904;32;33234;-86
2022/09/16 11:23:29;;;;;;;5.05;2.17;;;;;;;18.45;60.97;99240.75;4429771;32;33402;-85
2022/09/16 11:26:36;;;;;;;5.90;2.47;;;;;;;18.96;61.18;99223.44;4454279;32;34663;-86
2022/09/16 11:29:23;;;;;;;4.78;2.40;;;;;;;19.23;58.83;99208.59;4433855;32;34180;-86
2022/09/16 11:31:56;;;;;;;8.40;3.20;;;;;;;19.93;59.45;99206.78;4462701;32;33177;-86
2022/09/16 11:34:36;;;;;;;5.78;2.70;;;;;;;19.01;61.06;99200.69;4453225;32;32773;-86
2022/09/16 11:37:42;;;;;;;5.55;2.62;;;;;;;19.26;59.89;99208.59;4448357;32;33947;-85
2022/09/16 11:40:40;;;;;;;6.03;2.28;;;;;;;19.63;58.21;99204.19;4435395;32;34745;-85
2022/09/16 11:43:32;;;;;;;6.70;2.35;;;;;;;19.69;58.50;99200.66;4462613;32;34323;-86
2022/09/16 11:46:02;;;;;;;5.85;2.03;;;;;;;20.07;57.79;99206.72;4442737;32;34543;-86
2022/09/16 11:48:53;;;;;;;3.35;1.80;;;;;;;20.09;56.90;99197.09;4461754;32;33483;-85
2022/09/16 11:51:48;;;;;;;7.50;1.90;;;;;;;20.78;54.28;99196.78;4460044;32;33951;-86
2022/09/16 11:54:16;;;;;;;;;;;;;;;21.80;52.42;99199.47;4468671;32;34012;-86
2022/09/16 11:56:49;;;;;;;4.40;2.10;;;;;;;21.89;52.04;99180.06;4468336;32;33986;-86
2022/09/16 11:59:25;;;;;;;5.10;2.33;;;;;;;21.65;52.99;99187.31;4459617;32;34598;-86
2022/09/16 12:02:23;;;;;;;4.32;1.83;;;;;;;20.01;55.73;99189.22;4442904;32;34859;-86
2022/09/16 12:05:05;;;;;;;3.75;1.70;;;;;;;20.03;56.04;99195.38;4451627;32;34582;-85
2022/09/16 12:07:37;;;;;;;7.40;1.85;;;;;;;20.22;57.12;99183.91;4442079;32;32134;-86
2022/09/16 12:10:23;;;;;;;4.65;1.80;;;;;;;20.39;55.73;99172.41;4451696;32;34315;-86
2022/09/16 12:12:56;;;;;;;5.07;1.87;;;;;;;20.33;54.72;99169.81;4455993;32;34042;-85
2022/09/16 12:15:32;;;;;;;4.50;1.80;;;;;;;20.72;53.33;99175.78;4444842;32;33965;-86
2022/09/16 12:18:14;;;;;;;4.00;2.20;;;;;;;20.35;54.86;99181.22;4454921;32;33541;-87
2022/09/16 12:20:46;;;;;;;5.72;2.00;;;;;;;21.18;53.27;99185.97;4449278;32;33468;-85
2022/09/16 12:23:17;;;;;;;3.50;1.60;;;;;;;20.75;54.23;99176.63;4445047;32;33764;-85
2022/09/16 12:26:02;;;;;;;4.30;1.62;;;;;;;19.51;56.39;99179.66;4446349;32;33655;-86
2022/09/16 12:28:42;;;;;;;3.20;1.42;;;;;;;19.95;56.05;99162.97;4448646;32;34591;-85
2022/09/16 12:31:29;;;;;;;4.53;1.58;;;;;;;19.55;55.73;99177.06;4455157;32;34672;-87
2022/09/16 12:34:19;;;;;;;5.22;1.87;;;;;;;19.62;56.12;99189.31;4451182;32;34893;-87
2022/09/16 12:36:53;;;;;;;4.55;1.87;;;;;;;19.50;57.44;99183.19;4451843;32;33527;-86
2022/09/16 12:39:21;;;;;;;6.22;2.08;;;;;;;19.51;57.85;99171.78;4460269;32;34113;-86
2022/09/16 12:41:57;;;;;;;4.70;1.90;;;;;;;19.29;59.47;99163.94;4454234;32;33605;-86
2022/09/16 12:45:03;;;;;;;8.02;2.50;;;;;;;19.63;57.48;99163.91;4464165;32;33858;-86
2022/09/16 12:47:45;;;;;;;5.93;2.17;;;;;;;19.90;58.66;99162.13;4461711;32;33430;-86
2022/09/16 12:50:46;;;;;;;6.72;2.37;;;;;;;19.50;58.33;99159.56;4466549;32;34284;-86
2022/09/16 12:53:52;;;;;;;6.00;1.98;;;;;;;19.56;57.73;99156.91;4445718;32;34594;-85
2022/09/16 12:56:36;;;;;;;4.45;1.73;;;;;;;19.42;57.30;99149.91;4453963;32;33313;-86
2022/09/16 12:59:12;;;;;;;5.53;1.77;;;;;;;19.67;59.03;99144.62;4467868;32;33132;-86
2022/09/16 13:01:57;;;;;;;6.45;1.87;;;;;;;20.05;57.84;99146.28;4449013;32;32674;-86
2022/09/16 13:04:31;;;;;;;7.57;2.35;;;;;;;19.71;57.86;99146.34;4452706;32;34525;-86
2022/09/16 13:07:00;;;;;;;9.25;2.10;;;;;;;19.96;57.14;99141.94;4453349;32;33929;-86
2022/09/16 13:09:30;;;;;;;4.70;1.70;;;;;;;20.11;56.77;99126.97;4467851;32;32818;-85
2022/09/16 13:12:01;;;;;;;5.22;1.65;;;;;;;20.00;55.96;99137.53;4467168;32;34088;-85
2022/09/16 13:14:57;;;;;;;5.72;2.00;;;;;;;19.72;56.21;99132.41;4445882;32;33792;-86
2022/09/16 13:17:33;;;;;;;5.90;1.70;;;;;;;19.76;57.19;99136.75;4467850;32;34073;-85
2022/09/16 13:20:16;;;;;;;4.28;1.58;;;;;;;20.00;57.23;99134.91;4448518;32;33222;-85
2022/09/16 13:22:50;;;;;;;5.50;1.90;;;;;;;19.54;57.64;99138.50;4460805;32;33897;-86
2022/09/16 13:25:21;;;;;;;5.70;1.80;;;;;;;19.41;58.12;99142.94;4463941;32;34191;-86
2022/09/16 13:28:00;;;;;;;4.57;1.70;;;;;;;19.68;59.57;99141.09;4443585;32;32941;-86
2022/09/16 13:30:34;;;;;;;5.12;1.92;;;;;;;19.51;59.18;99145.53;4451074;32;33177;-86
2022/09/16 13:33:22;;;;;;;8.25;2.00;;;;;;;19.05;60.04;99136.81;4434410;32;32871;-86
2022/09/16 13:36:12;;;;;;;5.65;2.20;;;;;;;19.29;60.39;99137.69;4448302;32;33296;-86
2022/09/16 13:38:51;;;;;;;6.12;2.00;;;;;;;20.07;60.06;99134.00;4415423;32;32657;-87
2022/09/16 13:41:31;;;;;;;4.82;2.10;;;;;;;19.78;60.48;99120.97;4445249;32;33084;-86
2022/09/16 13:43:58;;;;;;;3.80;1.80;;;;;;;19.51;61.50;99140.28;4454053;32;33900;-86
2022/09/16 13:46:36;;;;;;;5.57;2.33;;;;;;;19.50;61.97;99123.63;4441358;32;33829;-86
2022/09/16 13:49:04;;;;;;;4.97;1.95;;;;;;;19.50;61.02;99122.78;4440576;32;34034;-87
2022/09/16 13:51:37;;;;;;;7.30;1.77;;;;;;;19.95;61.07;99115.66;4462877;32;33838;-86
2022/09/16 13:54:17;;;;;;;5.28;1.92;;;;;;;19.95;61.45;99113.03;4450995;32;33581;-86
2022/09/16 13:57:17;;;;;;;4.87;2.03;;;;;;;19.88;57.61;99111.31;4451853;32;33731;-86
2022/09/16 13:59:57;;;;;;;5.12;1.90;;;;;;;19.45;58.71;99113.16;4442881;32;33385;-86
2022/09/16 14:03:06;;;;;;;3.78;1.77;;;;;;;19.62;59.66;99107.88;4446196;32;34292;-86
2022/09/16 14:05:41;;;;;;;9.45;2.25;;;;;;;19.47;60.44;99101.75;4448538;32;34149;-87
2022/09/16 14:08:15;;;;;;;;;;;;;;;19.42;60.90;99097.38;4461126;32;34570;-86
2022/09/16 14:10:59;;;;;;;6.10;2.15;;;;;;;19.69;60.30;99097.34;4445361;32;33079;-86
2022/09/16 14:13:38;;;;;;;5.10;2.00;;;;;;;19.73;59.94;99091.22;4425364;32;32347;-85
2022/09/16 14:16:17;;;;;;;7.12;2.00;;;;;;;19.84;60.55;99085.03;4422474;32;32460;-85
2022/09/16 14:18:59;;;;;;;4.90;2.42;;;;;;;19.66;61.03;99087.69;4439296;32;33732;-85
2022/09/16 14:21:27;;;;;;;8.25;2.62;;;;;;;19.08;63.96;99093.06;4432776;32;33526;-84
2022/09/16 14:23:54;;;;;;;4.40;2.55;;;;;;;19.09;63.98;99094.84;4461142;32;34341;-85
2022/09/16 14:26:23;;;;;;;8.57;2.62;;;;;;;19.15;63.92;99103.56;4450973;32;33664;-85
2022/09/16 14:29:01;;;;;;;5.78;2.30;;;;;;;18.93;64.35;99094.84;4449506;32;33378;-85
2022/09/16 14:31:31;;;;;;;5.80;2.30;;;;;;;18.90;64.89;99091.34;4462790;32;34058;-84
2022/09/16 14:34:03;;;;;;;6.82;2.78;;;;;;;19.10;65.15;99104.44;4442446;32;33040;-87
2022/09/16 14:36:34;;;;;;;6.53;2.90;;;;;;;18.75;66.85;99102.66;4444461;32;33506;-87
2022/09/16 14:39:09;;;;;;;7.57;3.08;;;;;;;18.67;66.71;99106.16;4448818;32;34627;-85
2022/09/16 14:41:43;;;;;;;8.23;3.03;;;;;;;18.90;67.22;99096.59;4445655;32;34224;-84
2022/09/16 14:44:19;;;;;;;6.00;2.97;;;;;;;18.60;66.97;99086.06;4448086;32;33686;-86
2022/09/16 14:47:05;;;;;;;6.95;2.62;;;;;;;18.88;66.25;99083.47;4460078;32;34475;-85
2022/09/16 14:49:39;;;;;;;7.57;3.20;;;;;;;18.65;66.93;99084.28;4447279;32;33536;-85
2022/09/16 14:52:17;;;;;;;5.68;2.45;;;;;;;18.61;66.37;99079.94;4438955;32;34563;-84
2022/09/16 14:54:45;;;;;;;5.57;2.80;;;;;;;19.10;65.11;99086.06;4430647;32;32965;-87
2022/09/16 14:57:24;;;;;;;7.18;2.65;;;;;;;18.77;66.17;99075.56;4432319;32;32752;-84
2022/09/16 14:59:56;;;;;;;7.18;2.85;;;;;;;18.95;66.29;99074.72;4442345;32;34752;-86
2022/09/16 15:02:29;;;;;;;6.70;2.62;;;;;;;18.62;66.33;99071.19;4443570;32;32429;-84
2022/09/16 15:05:13;;;;;;;6.85;2.60;;;;;;;18.67;66.91;99064.19;4440110;32;34587;-86
2022/09/16 15:07:42;;;;;;;7.78;2.90;;;;;;;18.82;66.91;99070.34;4442993;32;33590;-84
2022/09/16 15:10:30;;;;;;;8.48;3.10;;;;;;;18.61;66.75;99069.44;4430481;32;33989;-84
2022/09/16 15:13:19;;;;;;;9.18;3.53;;;;;;;18.56;67.04;99081.69;4447177;32;34422;-85
2022/09/16 15:15:54;;;;;;;7.05;3.42;;;;;;;18.73;66.38;99072.94;4442897;32;34281;-85
2022/09/16 15:18:27;;;;;;;8.68;3.83;;;;;;;18.43;67.23;99077.31;4441930;32;34074;-87
2022/09/16 15:21:06;;;;;;;8.95;3.25;;;;;;;18.66;66.27;99082.56;4448015;32;34253;-83
2022/09/16 15:23:34;;;;;;;6.80;3.25;;;;;;;18.04;67.48;99087.69;4442886;32;34167;-85
2022/09/16 15:26:15;;;;;;;6.97;2.85;;;;;;;17.63;69.13;99087.47;4447616;32;33358;-87
2022/09/16 15:28:53;;;;;;;6.37;3.28;;;;;;;17.77;69.62;99080.59;4459879;32;34633;-86
2022/09/16 15:31:27;;;;;;;12.73;4.18;;;;;;;17.62;69.96;99084.00;4443281;32;33075;-85
2022/09/16 15:33:56;;;;;;;10.60;3.67;;;;;;;17.66;70.88;99084.88;4458052;32;36219;-89
2022/09/16 15:36:40;;;;;;;8.07;3.22;;;;;;;17.84;70.63;99085.00;4419102;32;33097;-90
2022/09/16 15:39:24;;;;;;;4.78;2.53;;;;;;;17.66;70.96;99090.12;4445994;32;33256;-90
2022/09/16 15:42:09;;;;;;;5.70;2.67;;;;;;;17.51;71.36;99092.66;4447921;32;32218;-90
2022/09/16 15:44:47;;;;;;;6.82;2.55;;;;;;;17.66;70.49;99095.38;4457762;32;33505;-89
2022/09/16 15:47:21;;;;;;;8.10;2.85;;;;;;;17.25;72.83;99103.88;4451368;32;34160;-90
2022/09/16 15:50:11;;;;;;;6.57;2.70;;;;;;;17.38;72.54;99107.41;4464250;32;34317;-89
2022/09/16 15:53:02;;;;;;;4.95;2.30;;;;;;;17.33;73.29;99106.53;4466866;32;33939;-89
2022/09/16 15:56:10;;;;;;;7.03;2.37;;;;;;;17.38;73.04;99108.28;4447789;32;33789;-89
2022/09/16 15:58:42;;;;;;;6.50;2.35;;;;;;;17.41;73.22;99090.00;4451445;32;33645;-88
2022/09/16 16:01:36;;;;;;;5.93;2.60;;;;;;;17.71;72.41;99082.28;4450232;32;32960;-89
2022/09/16 16:04:06;;;;;;;5.78;2.40;;;;;;;17.54;73.05;99079.56;4464303;32;33880;-88
2022/09/16 16:06:44;;;;;;;6.37;2.42;;;;;;;17.41;73.42;99082.12;4460895;32;33987;-89
2022/09/16 16:09:28;;;;;;;7.85;2.67;;;;;;;17.47;73.97;99079.53;4460203;32;33294;-91
2022/09/16 16:11:58;;;;;;;9.65;3.70;;;;;;;17.84;72.37;99074.50;4460484;32;34677;-90
2022/09/16 16:14:31;;;;;;;11.75;4.28;;;;;;;17.52;73.46;99079.59;4436345;32;33151;-90
2022/09/16 16:17:11;;;;;;;8.35;3.58;;;;;;;18.00;71.66;99069.31;4427824;32;34068;-92
2022/09/16 16:19:45;;;;;;;6.65;2.53;;;;;;;18.59;69.30;99067.69;4433178;32;33277;-91
2022/09/16 16:22:13;;;;;;;9.77;3.33;;;;;;;18.91;67.06;99072.09;4437607;32;33951;-91
2022/09/16 16:24:41;;;;;;;6.20;2.85;;;;;;;18.44;68.90;99068.53;4435302;32;33616;-92
2022/09/16 16:27:09;;;;;;;5.03;2.58;;;;;;;17.98;69.75;99065.81;4449902;32;34224;-94
2022/09/16 16:29:37;;;;;;;5.43;2.28;;;;;;;18.45;68.09;99062.44;4438958;32;33009;-91
2022/09/16 16:32:12;;;;;;;5.37;2.22;;;;;;;18.33;68.86;99062.41;4433156;32;33227;-89
2022/09/16 16:34:42;;;;;;;4.17;2.33;;;;;;;17.44;72.15;99058.59;4448583;32;34298;-91
2022/09/16 16:37:13;;;;;;;5.55;2.47;;;;;;;18.46;68.71;99058.94;4453798;32;34078;-95
2022/09/16 16:40:03;;;;;;;5.37;2.50;;;;;;;18.84;66.83;99048.47;4428950;32;32939;-91
2022/09/16 16:42:31;;;;;;;6.30;2.22;;;;;;;19.13;64.69;99039.69;4436542;32;34238;-91
2022/09/16 16:44:59;;;;;;;5.93;3.03;;;;;;;19.23;64.95;99043.16;4436021;32;32415;-91
2022/09/16 16:47:26;;;;;;;5.55;3.05;;;;;;;19.93;61.89;99046.44;4455212;32;33449;-91
2022/09/16 16:49:54;;;;;;;5.57;2.67;;;;;;;19.50;62.87;99051.84;4429891;32;33236;-87
2022/09/16 16:52:21;;;;;;;8.05;2.95;;;;;;;18.44;67.52;99056.31;4454940;32;33968;-86
2022/09/16 16:54:51;;;;;;;7.30;2.95;;;;;;;18.46;67.15;99049.31;4459635;32;33532;-84
2022/09/16 16:57:19;;;;;;;7.93;3.10;;;;;;;18.49;67.62;99048.47;4460176;32;34040;-88
2022/09/16 16:59:46;;;;;;;4.85;2.80;;;;;;;18.79;66.11;99046.69;4444184;32;33623;-86
2022/09/16 17:02:14;;;;;;;4.37;2.37;;;;;;;19.20;64.69;99048.41;4442606;32;33024;-86
2022/09/16 17:04:42;;;;;;;5.68;2.10;;;;;;;19.26;64.07;99037.94;4445596;32;34304;-86
2022/09/16 17:07:10;;;;;;;5.80;2.40;;;;;;;18.64;65.11;99045.84;4444006;32;34788;-86
2022/09/16 17:09:56;;;;;;;;;;;;;;;18.58;66.11;99053.72;4444047;32;33189;-89
2022/09/16 17:12:24;;;;;;;5.70;2.42;;;;;;;18.26;68.19;99044.06;4446168;32;34827;-89
2022/09/16 17:14:51;;;;;;;7.28;2.72;;;;;;;18.56;67.46;99039.72;4449232;32;33929;-86
2022/09/16 17:17:19;;;;;;;9.23;2.53;;;;;;;18.39;68.39;99042.34;4434241;32;32630;-83
2022/09/16 17:19:46;;;;;;;6.37;2.55;;;;;;;18.18;68.23;99048.41;4466177;32;33459;-83